<?xml version="1.0" encoding="UTF-8" standalone="no" ?>
<gpx xmlns="http://www.topografix.com/GPX/1/1" xmlns:xsi="http://www.w3.org/2001/XMLSchema-instance" xsi:schemaLocation="http://www.topografix.com/GPX/1/1 http://www.topografix.com/GPX/1/1/gpx.xsd" version="1.1" creator="VisuGPX - https://www.visugpx.com">
  <metadata>
    <name>C&amp;D_8km</name>
    <desc><![CDATA[C&D_8km]]></desc>
  </metadata>
  <trk>
    <name><![CDATA[2022-06-04 19:37:50]]></name>
    <extensions>
      <line xmlns="http://www.topografix.com/GPX/gpx_style/0/2">
        <color>0000FF</color>
        <width>4</width>
      </line>
    </extensions>
    <trkseg>
      <trkpt lat="50.36409" lon="4.33219">
        <ele>110.39</ele>
        <time>2022-06-04T16:41:38Z</time>
      </trkpt>
      <trkpt lat="50.36409" lon="4.33219">
        <ele>110.39</ele>
        <time>2022-06-04T16:41:39Z</time>
      </trkpt>
      <trkpt lat="50.36436" lon="4.33246">
        <ele>110.42</ele>
        <time>2022-06-04T16:41:51Z</time>
      </trkpt>
      <trkpt lat="50.36474" lon="4.33271">
        <ele>110.6</ele>
        <time>2022-06-04T16:42:00Z</time>
      </trkpt>
      <trkpt lat="50.36562" lon="4.33311">
        <ele>110.31</ele>
        <time>2022-06-04T16:42:17Z</time>
      </trkpt>
      <trkpt lat="50.36573" lon="4.33316">
        <ele>110.25</ele>
        <time>2022-06-04T16:42:19Z</time>
      </trkpt>
      <trkpt lat="50.36589" lon="4.33335">
        <ele>110.27</ele>
        <time>2022-06-04T16:42:23Z</time>
      </trkpt>
      <trkpt lat="50.36593" lon="4.33349">
        <ele>110.25</ele>
        <time>2022-06-04T16:42:25Z</time>
      </trkpt>
      <trkpt lat="50.36597" lon="4.33379">
        <ele>109.42</ele>
        <time>2022-06-04T16:42:29Z</time>
      </trkpt>
      <trkpt lat="50.36599" lon="4.334">
        <ele>108.74</ele>
        <time>2022-06-04T16:42:31Z</time>
      </trkpt>
      <trkpt lat="50.36603" lon="4.33438">
        <ele>107.65</ele>
        <time>2022-06-04T16:42:35Z</time>
      </trkpt>
      <trkpt lat="50.36609" lon="4.33573">
        <ele>106.36</ele>
        <time>2022-06-04T16:42:50Z</time>
      </trkpt>
      <trkpt lat="50.36613" lon="4.33583">
        <ele>106.31</ele>
        <time>2022-06-04T16:42:57Z</time>
      </trkpt>
      <trkpt lat="50.36613" lon="4.33586">
        <ele>105.93</ele>
        <time>2022-06-04T16:43:26Z</time>
      </trkpt>
      <trkpt lat="50.36613" lon="4.33586">
        <ele>106.05</ele>
        <time>2022-06-04T16:44:10Z</time>
      </trkpt>
      <trkpt lat="50.36614" lon="4.33584">
        <ele>106.04</ele>
        <time>2022-06-04T16:45:09Z</time>
      </trkpt>
      <trkpt lat="50.36613" lon="4.33585">
        <ele>106.25</ele>
        <time>2022-06-04T16:45:38Z</time>
      </trkpt>
      <trkpt lat="50.36613" lon="4.33585">
        <ele>106.31</ele>
        <time>2022-06-04T16:46:12Z</time>
      </trkpt>
      <trkpt lat="50.36613" lon="4.33586">
        <ele>106.32</ele>
        <time>2022-06-04T16:47:21Z</time>
      </trkpt>
      <trkpt lat="50.36612" lon="4.33588">
        <ele>106.24</ele>
        <time>2022-06-04T16:47:57Z</time>
      </trkpt>
      <trkpt lat="50.36612" lon="4.33587">
        <ele>106.47</ele>
        <time>2022-06-04T16:48:40Z</time>
      </trkpt>
      <trkpt lat="50.36613" lon="4.33585">
        <ele>106.35</ele>
        <time>2022-06-04T16:49:22Z</time>
      </trkpt>
      <trkpt lat="50.36615" lon="4.33585">
        <ele>106.14</ele>
        <time>2022-06-04T16:50:04Z</time>
      </trkpt>
      <trkpt lat="50.36616" lon="4.33586">
        <ele>106.15</ele>
        <time>2022-06-04T16:50:12Z</time>
      </trkpt>
      <trkpt lat="50.36613" lon="4.33624">
        <ele>107.26</ele>
        <time>2022-06-04T16:50:23Z</time>
      </trkpt>
      <trkpt lat="50.36611" lon="4.33669">
        <ele>110.27</ele>
        <time>2022-06-04T16:50:36Z</time>
      </trkpt>
      <trkpt lat="50.36619" lon="4.33707">
        <ele>113.36</ele>
        <time>2022-06-04T16:50:49Z</time>
      </trkpt>
      <trkpt lat="50.36621" lon="4.33714">
        <ele>113.82</ele>
        <time>2022-06-04T16:50:52Z</time>
      </trkpt>
      <trkpt lat="50.36622" lon="4.33738">
        <ele>115.23</ele>
        <time>2022-06-04T16:51:01Z</time>
      </trkpt>
      <trkpt lat="50.36625" lon="4.33755">
        <ele>116.12</ele>
        <time>2022-06-04T16:51:06Z</time>
      </trkpt>
      <trkpt lat="50.3663" lon="4.33794">
        <ele>118.2</ele>
        <time>2022-06-04T16:51:17Z</time>
      </trkpt>
      <trkpt lat="50.36633" lon="4.33811">
        <ele>119.07</ele>
        <time>2022-06-04T16:51:22Z</time>
      </trkpt>
      <trkpt lat="50.36636" lon="4.3383">
        <ele>120.31</ele>
        <time>2022-06-04T16:51:28Z</time>
      </trkpt>
      <trkpt lat="50.36643" lon="4.33865">
        <ele>122.38</ele>
        <time>2022-06-04T16:51:41Z</time>
      </trkpt>
      <trkpt lat="50.36647" lon="4.33893">
        <ele>125.58</ele>
        <time>2022-06-04T16:51:55Z</time>
      </trkpt>
      <trkpt lat="50.36645" lon="4.33935">
        <ele>128.01</ele>
        <time>2022-06-04T16:52:14Z</time>
      </trkpt>
      <trkpt lat="50.3664" lon="4.33978">
        <ele>126.72</ele>
        <time>2022-06-04T16:52:25Z</time>
      </trkpt>
      <trkpt lat="50.36643" lon="4.34023">
        <ele>125.89</ele>
        <time>2022-06-04T16:52:34Z</time>
      </trkpt>
      <trkpt lat="50.36643" lon="4.34052">
        <ele>126.6</ele>
        <time>2022-06-04T16:52:40Z</time>
      </trkpt>
      <trkpt lat="50.36628" lon="4.34113">
        <ele>128.05</ele>
        <time>2022-06-04T16:52:50Z</time>
      </trkpt>
      <trkpt lat="50.36627" lon="4.34116">
        <ele>128.19</ele>
        <time>2022-06-04T16:52:51Z</time>
      </trkpt>
      <trkpt lat="50.36596" lon="4.34191">
        <ele>128.82</ele>
        <time>2022-06-04T16:53:02Z</time>
      </trkpt>
      <trkpt lat="50.36572" lon="4.34263">
        <ele>128.8</ele>
        <time>2022-06-04T16:53:09Z</time>
      </trkpt>
      <trkpt lat="50.36552" lon="4.34304">
        <ele>129.39</ele>
        <time>2022-06-04T16:53:15Z</time>
      </trkpt>
      <trkpt lat="50.36521" lon="4.34347">
        <ele>129.08</ele>
        <time>2022-06-04T16:53:25Z</time>
      </trkpt>
      <trkpt lat="50.36514" lon="4.34358">
        <ele>128.95</ele>
        <time>2022-06-04T16:53:27Z</time>
      </trkpt>
      <trkpt lat="50.365" lon="4.34375">
        <ele>128.89</ele>
        <time>2022-06-04T16:53:31Z</time>
      </trkpt>
      <trkpt lat="50.36468" lon="4.3443">
        <ele>129.27</ele>
        <time>2022-06-04T16:53:41Z</time>
      </trkpt>
      <trkpt lat="50.36455" lon="4.34461">
        <ele>129.85</ele>
        <time>2022-06-04T16:53:50Z</time>
      </trkpt>
      <trkpt lat="50.36448" lon="4.34474">
        <ele>129.95</ele>
        <time>2022-06-04T16:53:55Z</time>
      </trkpt>
      <trkpt lat="50.36442" lon="4.34485">
        <ele>130.02</ele>
        <time>2022-06-04T16:54:01Z</time>
      </trkpt>
      <trkpt lat="50.36439" lon="4.34492">
        <ele>130.23</ele>
        <time>2022-06-04T16:54:21Z</time>
      </trkpt>
      <trkpt lat="50.36436" lon="4.34502">
        <ele>130.54</ele>
        <time>2022-06-04T16:54:26Z</time>
      </trkpt>
      <trkpt lat="50.36427" lon="4.34508">
        <ele>130.52</ele>
        <time>2022-06-04T16:54:31Z</time>
      </trkpt>
      <trkpt lat="50.36399" lon="4.34533">
        <ele>129.79</ele>
        <time>2022-06-04T16:54:40Z</time>
      </trkpt>
      <trkpt lat="50.36351" lon="4.34577">
        <ele>128.9</ele>
        <time>2022-06-04T16:54:52Z</time>
      </trkpt>
      <trkpt lat="50.36313" lon="4.34607">
        <ele>129.51</ele>
        <time>2022-06-04T16:55:03Z</time>
      </trkpt>
      <trkpt lat="50.36248" lon="4.34664">
        <ele>126.85</ele>
        <time>2022-06-04T16:56:27Z</time>
      </trkpt>
      <trkpt lat="50.36229" lon="4.34676">
        <ele>127.28</ele>
        <time>2022-06-04T16:56:33Z</time>
      </trkpt>
      <trkpt lat="50.362" lon="4.34694">
        <ele>127.51</ele>
        <time>2022-06-04T16:56:44Z</time>
      </trkpt>
      <trkpt lat="50.36163" lon="4.34717">
        <ele>127.6</ele>
        <time>2022-06-04T16:56:55Z</time>
      </trkpt>
      <trkpt lat="50.36153" lon="4.34725">
        <ele>127.43</ele>
        <time>2022-06-04T16:56:58Z</time>
      </trkpt>
      <trkpt lat="50.36121" lon="4.34735">
        <ele>126.69</ele>
        <time>2022-06-04T16:57:09Z</time>
      </trkpt>
      <trkpt lat="50.36102" lon="4.34736">
        <ele>126.35</ele>
        <time>2022-06-04T16:57:14Z</time>
      </trkpt>
      <trkpt lat="50.36091" lon="4.34742">
        <ele>126.22</ele>
        <time>2022-06-04T16:57:18Z</time>
      </trkpt>
      <trkpt lat="50.36079" lon="4.34751">
        <ele>126.44</ele>
        <time>2022-06-04T16:57:25Z</time>
      </trkpt>
      <trkpt lat="50.36067" lon="4.34756">
        <ele>126.81</ele>
        <time>2022-06-04T16:57:30Z</time>
      </trkpt>
      <trkpt lat="50.36034" lon="4.34761">
        <ele>127.89</ele>
        <time>2022-06-04T16:57:41Z</time>
      </trkpt>
      <trkpt lat="50.36031" lon="4.34761">
        <ele>127.91</ele>
        <time>2022-06-04T16:57:42Z</time>
      </trkpt>
      <trkpt lat="50.36008" lon="4.34766">
        <ele>128.05</ele>
        <time>2022-06-04T16:57:49Z</time>
      </trkpt>
      <trkpt lat="50.35973" lon="4.34777">
        <ele>128.29</ele>
        <time>2022-06-04T16:58:00Z</time>
      </trkpt>
      <trkpt lat="50.35943" lon="4.34785">
        <ele>129.02</ele>
        <time>2022-06-04T16:58:10Z</time>
      </trkpt>
      <trkpt lat="50.35933" lon="4.34789">
        <ele>129.25</ele>
        <time>2022-06-04T16:58:14Z</time>
      </trkpt>
      <trkpt lat="50.35912" lon="4.34801">
        <ele>129.73</ele>
        <time>2022-06-04T16:58:21Z</time>
      </trkpt>
      <trkpt lat="50.35889" lon="4.34808">
        <ele>130.33</ele>
        <time>2022-06-04T16:58:29Z</time>
      </trkpt>
      <trkpt lat="50.35873" lon="4.34816">
        <ele>130.96</ele>
        <time>2022-06-04T16:58:34Z</time>
      </trkpt>
      <trkpt lat="50.35844" lon="4.3483">
        <ele>132.11</ele>
        <time>2022-06-04T16:58:44Z</time>
      </trkpt>
      <trkpt lat="50.35824" lon="4.34842">
        <ele>132.78</ele>
        <time>2022-06-04T16:58:52Z</time>
      </trkpt>
      <trkpt lat="50.35808" lon="4.34843">
        <ele>132.77</ele>
        <time>2022-06-04T16:58:57Z</time>
      </trkpt>
      <trkpt lat="50.35791" lon="4.34838">
        <ele>132.48</ele>
        <time>2022-06-04T16:59:03Z</time>
      </trkpt>
      <trkpt lat="50.35776" lon="4.34833">
        <ele>131.95</ele>
        <time>2022-06-04T16:59:12Z</time>
      </trkpt>
      <trkpt lat="50.35752" lon="4.34806">
        <ele>132.12</ele>
        <time>2022-06-04T16:59:27Z</time>
      </trkpt>
      <trkpt lat="50.35749" lon="4.34805">
        <ele>132.12</ele>
        <time>2022-06-04T16:59:28Z</time>
      </trkpt>
      <trkpt lat="50.35731" lon="4.34757">
        <ele>132.4</ele>
        <time>2022-06-04T16:59:41Z</time>
      </trkpt>
      <trkpt lat="50.35718" lon="4.34723">
        <ele>133.09</ele>
        <time>2022-06-04T16:59:50Z</time>
      </trkpt>
      <trkpt lat="50.35711" lon="4.3468">
        <ele>133.41</ele>
        <time>2022-06-04T16:59:57Z</time>
      </trkpt>
      <trkpt lat="50.35704" lon="4.34602">
        <ele>132.58</ele>
        <time>2022-06-04T17:00:09Z</time>
      </trkpt>
      <trkpt lat="50.35691" lon="4.34553">
        <ele>132.28</ele>
        <time>2022-06-04T17:00:18Z</time>
      </trkpt>
      <trkpt lat="50.35682" lon="4.34492">
        <ele>132.15</ele>
        <time>2022-06-04T17:00:29Z</time>
      </trkpt>
      <trkpt lat="50.35673" lon="4.34465">
        <ele>131.94</ele>
        <time>2022-06-04T17:00:33Z</time>
      </trkpt>
      <trkpt lat="50.35657" lon="4.34411">
        <ele>131.22</ele>
        <time>2022-06-04T17:00:43Z</time>
      </trkpt>
      <trkpt lat="50.35662" lon="4.34401">
        <ele>130.6</ele>
        <time>2022-06-04T17:00:47Z</time>
      </trkpt>
      <trkpt lat="50.35678" lon="4.34395">
        <ele>130.1</ele>
        <time>2022-06-04T17:00:52Z</time>
      </trkpt>
      <trkpt lat="50.35723" lon="4.344">
        <ele>129.09</ele>
        <time>2022-06-04T17:01:05Z</time>
      </trkpt>
      <trkpt lat="50.3574" lon="4.34378">
        <ele>128.59</ele>
        <time>2022-06-04T17:01:11Z</time>
      </trkpt>
      <trkpt lat="50.35776" lon="4.34341">
        <ele>128.22</ele>
        <time>2022-06-04T17:01:19Z</time>
      </trkpt>
      <trkpt lat="50.35845" lon="4.34272">
        <ele>128.38</ele>
        <time>2022-06-04T17:01:34Z</time>
      </trkpt>
      <trkpt lat="50.3593" lon="4.34204">
        <ele>128.61</ele>
        <time>2022-06-04T17:01:53Z</time>
      </trkpt>
      <trkpt lat="50.36013" lon="4.34131">
        <ele>129.06</ele>
        <time>2022-06-04T17:02:12Z</time>
      </trkpt>
      <trkpt lat="50.36083" lon="4.34036">
        <ele>130.85</ele>
        <time>2022-06-04T17:02:31Z</time>
      </trkpt>
      <trkpt lat="50.36098" lon="4.34009">
        <ele>132.3</ele>
        <time>2022-06-04T17:02:42Z</time>
      </trkpt>
      <trkpt lat="50.36096" lon="4.34015">
        <ele>133.05</ele>
        <time>2022-06-04T17:02:50Z</time>
      </trkpt>
      <trkpt lat="50.36094" lon="4.34022">
        <ele>132.6</ele>
        <time>2022-06-04T17:02:59Z</time>
      </trkpt>
      <trkpt lat="50.36095" lon="4.34024">
        <ele>132.11</ele>
        <time>2022-06-04T17:03:17Z</time>
      </trkpt>
      <trkpt lat="50.36095" lon="4.34022">
        <ele>132.33</ele>
        <time>2022-06-04T17:04:52Z</time>
      </trkpt>
      <trkpt lat="50.36095" lon="4.34019">
        <ele>132.85</ele>
        <time>2022-06-04T17:05:06Z</time>
      </trkpt>
      <trkpt lat="50.36097" lon="4.34012">
        <ele>132.94</ele>
        <time>2022-06-04T17:05:10Z</time>
      </trkpt>
      <trkpt lat="50.36099" lon="4.34002">
        <ele>133.22</ele>
        <time>2022-06-04T17:05:15Z</time>
      </trkpt>
      <trkpt lat="50.36098" lon="4.33947">
        <ele>134.06</ele>
        <time>2022-06-04T17:05:31Z</time>
      </trkpt>
      <trkpt lat="50.36086" lon="4.33844">
        <ele>136.41</ele>
        <time>2022-06-04T17:05:52Z</time>
      </trkpt>
      <trkpt lat="50.36071" lon="4.33751">
        <ele>136.62</ele>
        <time>2022-06-04T17:06:08Z</time>
      </trkpt>
      <trkpt lat="50.36053" lon="4.33642">
        <ele>135.12</ele>
        <time>2022-06-04T17:06:23Z</time>
      </trkpt>
      <trkpt lat="50.36065" lon="4.33604">
        <ele>133.68</ele>
        <time>2022-06-04T17:06:29Z</time>
      </trkpt>
      <trkpt lat="50.36095" lon="4.33574">
        <ele>131.46</ele>
        <time>2022-06-04T17:06:41Z</time>
      </trkpt>
      <trkpt lat="50.36099" lon="4.33568">
        <ele>131.31</ele>
        <time>2022-06-04T17:06:44Z</time>
      </trkpt>
      <trkpt lat="50.36096" lon="4.33562">
        <ele>130.86</ele>
        <time>2022-06-04T17:06:55Z</time>
      </trkpt>
      <trkpt lat="50.36096" lon="4.3356">
        <ele>130.69</ele>
        <time>2022-06-04T17:07:30Z</time>
      </trkpt>
      <trkpt lat="50.36091" lon="4.33565">
        <ele>131.02</ele>
        <time>2022-06-04T17:08:04Z</time>
      </trkpt>
      <trkpt lat="50.36085" lon="4.33566">
        <ele>130.98</ele>
        <time>2022-06-04T17:08:06Z</time>
      </trkpt>
      <trkpt lat="50.3605" lon="4.33569">
        <ele>129.92</ele>
        <time>2022-06-04T17:08:13Z</time>
      </trkpt>
      <trkpt lat="50.36032" lon="4.33558">
        <ele>128.39</ele>
        <time>2022-06-04T17:08:17Z</time>
      </trkpt>
      <trkpt lat="50.36004" lon="4.33502">
        <ele>124.77</ele>
        <time>2022-06-04T17:08:23Z</time>
      </trkpt>
      <trkpt lat="50.35986" lon="4.33467">
        <ele>122.41</ele>
        <time>2022-06-04T17:08:27Z</time>
      </trkpt>
      <trkpt lat="50.3595" lon="4.33389">
        <ele>120.82</ele>
        <time>2022-06-04T17:08:39Z</time>
      </trkpt>
      <trkpt lat="50.35909" lon="4.33304">
        <ele>121.61</ele>
        <time>2022-06-04T17:08:56Z</time>
      </trkpt>
      <trkpt lat="50.35884" lon="4.33249">
        <ele>124.58</ele>
        <time>2022-06-04T17:09:12Z</time>
      </trkpt>
      <trkpt lat="50.3587" lon="4.33219">
        <ele>127.01</ele>
        <time>2022-06-04T17:09:25Z</time>
      </trkpt>
      <trkpt lat="50.35858" lon="4.33185">
        <ele>130.02</ele>
        <time>2022-06-04T17:09:39Z</time>
      </trkpt>
      <trkpt lat="50.35845" lon="4.33154">
        <ele>132.77</ele>
        <time>2022-06-04T17:09:52Z</time>
      </trkpt>
      <trkpt lat="50.35842" lon="4.33143">
        <ele>134.19</ele>
        <time>2022-06-04T17:09:58Z</time>
      </trkpt>
      <trkpt lat="50.35839" lon="4.33106">
        <ele>136.99</ele>
        <time>2022-06-04T17:10:15Z</time>
      </trkpt>
      <trkpt lat="50.3584" lon="4.33105">
        <ele>137.18</ele>
        <time>2022-06-04T17:10:16Z</time>
      </trkpt>
      <trkpt lat="50.35838" lon="4.33077">
        <ele>140.66</ele>
        <time>2022-06-04T17:10:30Z</time>
      </trkpt>
      <trkpt lat="50.35831" lon="4.33056">
        <ele>143.81</ele>
        <time>2022-06-04T17:10:44Z</time>
      </trkpt>
      <trkpt lat="50.35818" lon="4.33041">
        <ele>146.83</ele>
        <time>2022-06-04T17:10:57Z</time>
      </trkpt>
      <trkpt lat="50.35798" lon="4.33036">
        <ele>150</ele>
        <time>2022-06-04T17:11:13Z</time>
      </trkpt>
      <trkpt lat="50.35785" lon="4.33032">
        <ele>152.04</ele>
        <time>2022-06-04T17:11:22Z</time>
      </trkpt>
      <trkpt lat="50.35769" lon="4.33038">
        <ele>155.32</ele>
        <time>2022-06-04T17:11:38Z</time>
      </trkpt>
      <trkpt lat="50.35754" lon="4.33048">
        <ele>158.13</ele>
        <time>2022-06-04T17:11:51Z</time>
      </trkpt>
      <trkpt lat="50.3574" lon="4.33058">
        <ele>161.54</ele>
        <time>2022-06-04T17:12:05Z</time>
      </trkpt>
      <trkpt lat="50.35727" lon="4.33051">
        <ele>164.67</ele>
        <time>2022-06-04T17:12:19Z</time>
      </trkpt>
      <trkpt lat="50.35718" lon="4.33028">
        <ele>167.81</ele>
        <time>2022-06-04T17:12:37Z</time>
      </trkpt>
      <trkpt lat="50.35715" lon="4.33001">
        <ele>170.71</ele>
        <time>2022-06-04T17:12:51Z</time>
      </trkpt>
      <trkpt lat="50.35715" lon="4.32998">
        <ele>171.08</ele>
        <time>2022-06-04T17:12:53Z</time>
      </trkpt>
      <trkpt lat="50.35713" lon="4.32972">
        <ele>174.51</ele>
        <time>2022-06-04T17:13:09Z</time>
      </trkpt>
      <trkpt lat="50.35708" lon="4.32955">
        <ele>177.59</ele>
        <time>2022-06-04T17:13:21Z</time>
      </trkpt>
      <trkpt lat="50.35699" lon="4.32929">
        <ele>180.31</ele>
        <time>2022-06-04T17:13:36Z</time>
      </trkpt>
      <trkpt lat="50.35698" lon="4.32927">
        <ele>180.43</ele>
        <time>2022-06-04T17:13:37Z</time>
      </trkpt>
      <trkpt lat="50.35684" lon="4.32899">
        <ele>182.57</ele>
        <time>2022-06-04T17:13:53Z</time>
      </trkpt>
      <trkpt lat="50.35674" lon="4.32878">
        <ele>183.93</ele>
        <time>2022-06-04T17:14:07Z</time>
      </trkpt>
      <trkpt lat="50.35673" lon="4.32875">
        <ele>184.14</ele>
        <time>2022-06-04T17:14:09Z</time>
      </trkpt>
      <trkpt lat="50.35669" lon="4.32851">
        <ele>184.55</ele>
        <time>2022-06-04T17:14:15Z</time>
      </trkpt>
      <trkpt lat="50.35669" lon="4.32844">
        <ele>184.62</ele>
        <time>2022-06-04T17:14:17Z</time>
      </trkpt>
      <trkpt lat="50.35669" lon="4.32828">
        <ele>184.7</ele>
        <time>2022-06-04T17:14:22Z</time>
      </trkpt>
      <trkpt lat="50.35673" lon="4.32799">
        <ele>184.86</ele>
        <time>2022-06-04T17:14:35Z</time>
      </trkpt>
      <trkpt lat="50.35674" lon="4.32775">
        <ele>185.77</ele>
        <time>2022-06-04T17:14:49Z</time>
      </trkpt>
      <trkpt lat="50.35676" lon="4.3277">
        <ele>185.87</ele>
        <time>2022-06-04T17:15:24Z</time>
      </trkpt>
      <trkpt lat="50.35679" lon="4.3277">
        <ele>185.81</ele>
        <time>2022-06-04T17:15:56Z</time>
      </trkpt>
      <trkpt lat="50.35678" lon="4.32771">
        <ele>186.02</ele>
        <time>2022-06-04T17:16:19Z</time>
      </trkpt>
      <trkpt lat="50.35677" lon="4.32778">
        <ele>185.82</ele>
        <time>2022-06-04T17:16:23Z</time>
      </trkpt>
      <trkpt lat="50.3567" lon="4.32808">
        <ele>185.48</ele>
        <time>2022-06-04T17:16:34Z</time>
      </trkpt>
      <trkpt lat="50.35668" lon="4.32818">
        <ele>185.28</ele>
        <time>2022-06-04T17:16:37Z</time>
      </trkpt>
      <trkpt lat="50.35665" lon="4.32837">
        <ele>184.86</ele>
        <time>2022-06-04T17:16:44Z</time>
      </trkpt>
      <trkpt lat="50.35665" lon="4.32844">
        <ele>184.7</ele>
        <time>2022-06-04T17:16:54Z</time>
      </trkpt>
      <trkpt lat="50.35667" lon="4.32828">
        <ele>184.51</ele>
        <time>2022-06-04T17:17:00Z</time>
      </trkpt>
      <trkpt lat="50.35672" lon="4.328">
        <ele>184.74</ele>
        <time>2022-06-04T17:17:14Z</time>
      </trkpt>
      <trkpt lat="50.35674" lon="4.32774">
        <ele>185.55</ele>
        <time>2022-06-04T17:17:31Z</time>
      </trkpt>
      <trkpt lat="50.35675" lon="4.32772">
        <ele>185.82</ele>
        <time>2022-06-04T17:17:56Z</time>
      </trkpt>
      <trkpt lat="50.35675" lon="4.3277">
        <ele>185.63</ele>
        <time>2022-06-04T17:18:11Z</time>
      </trkpt>
      <trkpt lat="50.35697" lon="4.32741">
        <ele>186.16</ele>
        <time>2022-06-04T17:18:24Z</time>
      </trkpt>
      <trkpt lat="50.35739" lon="4.32702">
        <ele>185.5</ele>
        <time>2022-06-04T17:18:40Z</time>
      </trkpt>
      <trkpt lat="50.35794" lon="4.32652">
        <ele>186.1</ele>
        <time>2022-06-04T17:18:59Z</time>
      </trkpt>
      <trkpt lat="50.35824" lon="4.32627">
        <ele>185.59</ele>
        <time>2022-06-04T17:19:13Z</time>
      </trkpt>
      <trkpt lat="50.35825" lon="4.32629">
        <ele>185.71</ele>
        <time>2022-06-04T17:19:47Z</time>
      </trkpt>
      <trkpt lat="50.35827" lon="4.32627">
        <ele>185.27</ele>
        <time>2022-06-04T17:20:15Z</time>
      </trkpt>
      <trkpt lat="50.35828" lon="4.32625">
        <ele>185.32</ele>
        <time>2022-06-04T17:20:55Z</time>
      </trkpt>
      <trkpt lat="50.3583" lon="4.32621">
        <ele>185.23</ele>
        <time>2022-06-04T17:21:06Z</time>
      </trkpt>
      <trkpt lat="50.35865" lon="4.32587">
        <ele>185.06</ele>
        <time>2022-06-04T17:21:19Z</time>
      </trkpt>
      <trkpt lat="50.35928" lon="4.32526">
        <ele>183.84</ele>
        <time>2022-06-04T17:21:38Z</time>
      </trkpt>
      <trkpt lat="50.35947" lon="4.3251">
        <ele>183.85</ele>
        <time>2022-06-04T17:21:43Z</time>
      </trkpt>
      <trkpt lat="50.36029" lon="4.32431">
        <ele>183.41</ele>
        <time>2022-06-04T17:22:01Z</time>
      </trkpt>
      <trkpt lat="50.36113" lon="4.3235">
        <ele>181.57</ele>
        <time>2022-06-04T17:22:20Z</time>
      </trkpt>
      <trkpt lat="50.3617" lon="4.32295">
        <ele>180.43</ele>
        <time>2022-06-04T17:22:36Z</time>
      </trkpt>
      <trkpt lat="50.36171" lon="4.32292">
        <ele>180.01</ele>
        <time>2022-06-04T17:22:48Z</time>
      </trkpt>
      <trkpt lat="50.36174" lon="4.32291">
        <ele>180.12</ele>
        <time>2022-06-04T17:23:10Z</time>
      </trkpt>
      <trkpt lat="50.36174" lon="4.32292">
        <ele>180.16</ele>
        <time>2022-06-04T17:23:35Z</time>
      </trkpt>
      <trkpt lat="50.36174" lon="4.32294">
        <ele>180.49</ele>
        <time>2022-06-04T17:23:53Z</time>
      </trkpt>
      <trkpt lat="50.36174" lon="4.32297">
        <ele>180.9</ele>
        <time>2022-06-04T17:25:54Z</time>
      </trkpt>
      <trkpt lat="50.36175" lon="4.32298">
        <ele>181.23</ele>
        <time>2022-06-04T17:28:02Z</time>
      </trkpt>
      <trkpt lat="50.36177" lon="4.32302">
        <ele>180.97</ele>
        <time>2022-06-04T17:28:07Z</time>
      </trkpt>
      <trkpt lat="50.36186" lon="4.32333">
        <ele>180.89</ele>
        <time>2022-06-04T17:28:18Z</time>
      </trkpt>
      <trkpt lat="50.36203" lon="4.3238">
        <ele>181.27</ele>
        <time>2022-06-04T17:28:31Z</time>
      </trkpt>
      <trkpt lat="50.36214" lon="4.32414">
        <ele>180.42</ele>
        <time>2022-06-04T17:28:42Z</time>
      </trkpt>
      <trkpt lat="50.36225" lon="4.32455">
        <ele>180.07</ele>
        <time>2022-06-04T17:28:52Z</time>
      </trkpt>
      <trkpt lat="50.36229" lon="4.32478">
        <ele>179.73</ele>
        <time>2022-06-04T17:28:56Z</time>
      </trkpt>
      <trkpt lat="50.36238" lon="4.32503">
        <ele>179.13</ele>
        <time>2022-06-04T17:29:01Z</time>
      </trkpt>
      <trkpt lat="50.36249" lon="4.32539">
        <ele>178.3</ele>
        <time>2022-06-04T17:29:07Z</time>
      </trkpt>
      <trkpt lat="50.36261" lon="4.32574">
        <ele>177.6</ele>
        <time>2022-06-04T17:29:12Z</time>
      </trkpt>
      <trkpt lat="50.36275" lon="4.3261">
        <ele>176.56</ele>
        <time>2022-06-04T17:29:17Z</time>
      </trkpt>
      <trkpt lat="50.3628" lon="4.32627">
        <ele>175.89</ele>
        <time>2022-06-04T17:29:19Z</time>
      </trkpt>
      <trkpt lat="50.36283" lon="4.32646">
        <ele>175.26</ele>
        <time>2022-06-04T17:29:21Z</time>
      </trkpt>
      <trkpt lat="50.36287" lon="4.32666">
        <ele>174.71</ele>
        <time>2022-06-04T17:29:23Z</time>
      </trkpt>
      <trkpt lat="50.3629" lon="4.3269">
        <ele>173.1</ele>
        <time>2022-06-04T17:29:27Z</time>
      </trkpt>
      <trkpt lat="50.36302" lon="4.32728">
        <ele>170.63</ele>
        <time>2022-06-04T17:29:32Z</time>
      </trkpt>
      <trkpt lat="50.36312" lon="4.32746">
        <ele>167.15</ele>
        <time>2022-06-04T17:29:38Z</time>
      </trkpt>
      <trkpt lat="50.36315" lon="4.32763">
        <ele>164.65</ele>
        <time>2022-06-04T17:31:36Z</time>
      </trkpt>
      <trkpt lat="50.36327" lon="4.32803">
        <ele>160.88</ele>
        <time>2022-06-04T17:31:43Z</time>
      </trkpt>
      <trkpt lat="50.36342" lon="4.32826">
        <ele>158.91</ele>
        <time>2022-06-04T17:31:46Z</time>
      </trkpt>
      <trkpt lat="50.36368" lon="4.32849">
        <ele>155.13</ele>
        <time>2022-06-04T17:31:50Z</time>
      </trkpt>
      <trkpt lat="50.36394" lon="4.32867">
        <ele>151.13</ele>
        <time>2022-06-04T17:31:54Z</time>
      </trkpt>
      <trkpt lat="50.36409" lon="4.32883">
        <ele>147.01</ele>
        <time>2022-06-04T17:31:58Z</time>
      </trkpt>
      <trkpt lat="50.36414" lon="4.32889">
        <ele>143.86</ele>
        <time>2022-06-04T17:32:01Z</time>
      </trkpt>
      <trkpt lat="50.36421" lon="4.32894">
        <ele>140.51</ele>
        <time>2022-06-04T17:32:05Z</time>
      </trkpt>
      <trkpt lat="50.36432" lon="4.32902">
        <ele>137.31</ele>
        <time>2022-06-04T17:32:10Z</time>
      </trkpt>
      <trkpt lat="50.36444" lon="4.3291">
        <ele>134.16</ele>
        <time>2022-06-04T17:32:15Z</time>
      </trkpt>
      <trkpt lat="50.3646" lon="4.32922">
        <ele>130.89</ele>
        <time>2022-06-04T17:32:22Z</time>
      </trkpt>
      <trkpt lat="50.36465" lon="4.32928">
        <ele>127.84</ele>
        <time>2022-06-04T17:32:33Z</time>
      </trkpt>
      <trkpt lat="50.36468" lon="4.32931">
        <ele>127.3</ele>
        <time>2022-06-04T17:32:46Z</time>
      </trkpt>
      <trkpt lat="50.36482" lon="4.32937">
        <ele>126.82</ele>
        <time>2022-06-04T17:32:52Z</time>
      </trkpt>
      <trkpt lat="50.36487" lon="4.32937">
        <ele>126.04</ele>
        <time>2022-06-04T17:33:05Z</time>
      </trkpt>
      <trkpt lat="50.3649" lon="4.3294">
        <ele>126.02</ele>
        <time>2022-06-04T17:33:21Z</time>
      </trkpt>
      <trkpt lat="50.365" lon="4.32941">
        <ele>126.08</ele>
        <time>2022-06-04T17:33:26Z</time>
      </trkpt>
      <trkpt lat="50.36515" lon="4.32949">
        <ele>125.05</ele>
        <time>2022-06-04T17:33:38Z</time>
      </trkpt>
      <trkpt lat="50.36514" lon="4.32959">
        <ele>123.73</ele>
        <time>2022-06-04T17:34:00Z</time>
      </trkpt>
      <trkpt lat="50.36511" lon="4.32959">
        <ele>122.63</ele>
        <time>2022-06-04T17:34:20Z</time>
      </trkpt>
      <trkpt lat="50.36511" lon="4.32958">
        <ele>122.9</ele>
        <time>2022-06-04T17:35:20Z</time>
      </trkpt>
      <trkpt lat="50.36511" lon="4.3296">
        <ele>123.69</ele>
        <time>2022-06-04T17:36:08Z</time>
      </trkpt>
      <trkpt lat="50.36512" lon="4.3296">
        <ele>123.52</ele>
        <time>2022-06-04T17:36:34Z</time>
      </trkpt>
      <trkpt lat="50.36512" lon="4.32961">
        <ele>123.4</ele>
        <time>2022-06-04T17:36:38Z</time>
      </trkpt>
      <trkpt lat="50.36511" lon="4.32963">
        <ele>123.28</ele>
        <time>2022-06-04T17:36:46Z</time>
      </trkpt>
      <trkpt lat="50.36509" lon="4.32984">
        <ele>122.92</ele>
        <time>2022-06-04T17:36:52Z</time>
      </trkpt>
      <trkpt lat="50.36491" lon="4.33081">
        <ele>119.81</ele>
        <time>2022-06-04T17:37:05Z</time>
      </trkpt>
      <trkpt lat="50.36476" lon="4.33133">
        <ele>117.46</ele>
        <time>2022-06-04T17:37:11Z</time>
      </trkpt>
      <trkpt lat="50.3644" lon="4.33195">
        <ele>115.48</ele>
        <time>2022-06-04T17:37:25Z</time>
      </trkpt>
      <trkpt lat="50.3642" lon="4.33219">
        <ele>115.35</ele>
        <time>2022-06-04T17:37:32Z</time>
      </trkpt>
      <trkpt lat="50.36412" lon="4.33212">
        <ele>115.21</ele>
        <time>2022-06-04T17:37:36Z</time>
      </trkpt>
      <trkpt lat="50.36407" lon="4.3321">
        <ele>115.06</ele>
        <time>2022-06-04T17:37:46Z</time>
      </trkpt>
      <trkpt lat="50.36407" lon="4.3321">
        <ele>115.16</ele>
        <time>2022-06-04T17:37:49Z</time>
      </trkpt>
    </trkseg>
  </trk>
</gpx>